createdAt,value
2022-08-21T00:00:00.000Z,10.56
2022-08-21T00:02:00.000Z,10.56
2022-08-21T00:04:00.000Z,10.56
2022-08-21T00:06:00.000Z,10.5
2022-08-21T00:08:00.000Z,10.5
2022-08-21T00:10:00.000Z,10.5
2022-08-21T00:12:00.000Z,10.5
2022-08-21T00:14:00.000Z,10.56
2022-08-21T00:16:00.000Z,10.56
2022-08-21T00:18:00.000Z,10.56
2022-08-21T00:20:00.000Z,10.56
2022-08-21T00:22:00.000Z,10.56
2022-08-21T00:24:00.000Z,10.5
2022-08-21T00:26:00.000Z,10.5
2022-08-21T00:28:00.000Z,10.28
2022-08-21T00:30:00.000Z,10.17
2022-08-21T00:32:00.000Z,10.17
2022-08-21T00:34:00.000Z,10.06
2022-08-21T00:36:00.000Z,10.0
2022-08-21T00:38:00.000Z,10.0
2022-08-21T00:40:00.000Z,10.0
2022-08-21T00:42:00.000Z,10.06
2022-08-21T00:44:00.000Z,10.06
2022-08-21T00:46:00.000Z,10.17
2022-08-21T00:48:00.000Z,10.17
2022-08-21T00:50:00.000Z,10.06
2022-08-21T00:52:00.000Z,10.0
2022-08-21T00:54:00.000Z,10.0
2022-08-21T00:56:00.000Z,10.0
2022-08-21T00:58:00.000Z,10.0
2022-08-21T01:00:00.000Z,10.0
2022-08-21T01:02:00.000Z,10.0
2022-08-21T01:04:00.000Z,10.0
2022-08-21T01:06:00.000Z,10.0
2022-08-21T01:08:00.000Z,10.0
2022-08-21T01:10:00.000Z,10.0
2022-08-21T01:12:00.000Z,9.89
2022-08-21T01:14:00.000Z,9.78
2022-08-21T01:16:00.000Z,9.67
2022-08-21T01:18:00.000Z,9.67
2022-08-21T01:20:00.000Z,9.67
2022-08-21T01:22:00.000Z,9.67
2022-08-21T01:24:00.000Z,9.67
2022-08-21T01:26:00.000Z,9.78
2022-08-21T01:28:00.000Z,9.78
2022-08-21T01:30:00.000Z,9.78
2022-08-21T01:32:00.000Z,9.78
2022-08-21T01:34:00.000Z,9.56
2022-08-21T01:36:00.000Z,9.5
2022-08-21T01:38:00.000Z,9.5
2022-08-21T01:40:00.000Z,9.5
2022-08-21T01:42:00.000Z,9.39
2022-08-21T01:44:00.000Z,9.39
2022-08-21T01:46:00.000Z,9.28
2022-08-21T01:48:00.000Z,9.17
2022-08-21T01:50:00.000Z,9.06
2022-08-21T01:52:00.000Z,9.06
2022-08-21T01:54:00.000Z,9.06
2022-08-21T01:56:00.000Z,9.17
2022-08-21T01:58:00.000Z,9.17
2022-08-21T02:00:00.000Z,9.28
2022-08-21T02:02:00.000Z,9.28
2022-08-21T02:04:00.000Z,9.17
2022-08-21T02:06:00.000Z,9.06
2022-08-21T02:08:00.000Z,9.0
2022-08-21T02:10:00.000Z,9.0
2022-08-21T02:12:00.000Z,9.0
2022-08-21T02:14:00.000Z,9.0
2022-08-21T02:16:00.000Z,9.06
2022-08-21T02:18:00.000Z,9.06
2022-08-21T02:20:00.000Z,9.0
2022-08-21T02:22:00.000Z,9.0
2022-08-21T02:24:00.000Z,9.0
2022-08-21T02:26:00.000Z,9.0
2022-08-21T02:28:00.000Z,9.0
2022-08-21T02:30:00.000Z,9.0
2022-08-21T02:32:00.000Z,9.0
2022-08-21T02:34:00.000Z,9.0
2022-08-21T02:36:00.000Z,8.89
2022-08-21T02:38:00.000Z,8.78
2022-08-21T02:40:00.000Z,8.78
2022-08-21T02:42:00.000Z,8.78
2022-08-21T02:44:00.000Z,8.67
2022-08-21T02:46:00.000Z,8.67
2022-08-21T02:48:00.000Z,8.67
2022-08-21T02:50:00.000Z,8.67
2022-08-21T02:52:00.000Z,8.56
2022-08-21T02:54:00.000Z,8.5
2022-08-21T02:56:00.000Z,8.5
2022-08-21T02:58:00.000Z,8.56
2022-08-21T03:00:00.000Z,8.56
2022-08-21T03:02:00.000Z,8.56
2022-08-21T03:04:00.000Z,8.5
2022-08-21T03:06:00.000Z,8.5
2022-08-21T03:08:00.000Z,8.5
2022-08-21T03:10:00.000Z,8.56
2022-08-21T03:12:00.000Z,8.56
2022-08-21T03:14:00.000Z,8.56
2022-08-21T03:16:00.000Z,8.5
2022-08-21T03:18:00.000Z,8.39
2022-08-21T03:20:00.000Z,8.39
2022-08-21T03:22:00.000Z,8.39
2022-08-21T03:24:00.000Z,8.5
2022-08-21T03:26:00.000Z,8.5
2022-08-21T03:28:00.000Z,8.56
2022-08-21T03:30:00.000Z,8.56
2022-08-21T03:32:00.000Z,8.67
2022-08-21T03:34:00.000Z,8.56
2022-08-21T03:36:00.000Z,8.5
2022-08-21T03:38:00.000Z,8.5
2022-08-21T03:40:00.000Z,8.39
2022-08-21T03:42:00.000Z,8.39
2022-08-21T03:44:00.000Z,8.39
2022-08-21T03:46:00.000Z,8.39
2022-08-21T03:48:00.000Z,8.39
2022-08-21T03:50:00.000Z,8.28
2022-08-21T03:52:00.000Z,8.28
2022-08-21T03:54:00.000Z,8.28
2022-08-21T03:56:00.000Z,8.28
2022-08-21T03:58:00.000Z,8.39
2022-08-21T04:00:00.000Z,8.39
2022-08-21T04:02:00.000Z,8.5
2022-08-21T04:04:00.000Z,8.5
2022-08-21T04:06:00.000Z,8.5
2022-08-21T04:08:00.000Z,8.5
2022-08-21T04:10:00.000Z,8.39
2022-08-21T04:12:00.000Z,8.39
2022-08-21T04:14:00.000Z,8.39
2022-08-21T04:16:00.000Z,8.28
2022-08-21T04:18:00.000Z,8.06
2022-08-21T04:20:00.000Z,8.06
2022-08-21T04:22:00.000Z,8.06
2022-08-21T04:24:00.000Z,8.06
2022-08-21T04:26:00.000Z,8.17
2022-08-21T04:28:00.000Z,8.0
2022-08-21T04:30:00.000Z,8.0
2022-08-21T04:32:00.000Z,8.06
2022-08-21T04:34:00.000Z,8.17
2022-08-21T04:36:00.000Z,8.17
2022-08-21T04:38:00.000Z,8.17
2022-08-21T04:40:00.000Z,8.06
2022-08-21T04:42:00.000Z,8.06
2022-08-21T04:44:00.000Z,8.17
2022-08-21T04:46:00.000Z,8.17
2022-08-21T04:48:00.000Z,8.28
2022-08-21T04:50:00.000Z,8.17
2022-08-21T04:52:00.000Z,8.17
2022-08-21T04:54:00.000Z,8.17
2022-08-21T04:56:00.000Z,8.28
2022-08-21T04:58:00.000Z,8.28
2022-08-21T05:00:00.000Z,8.28
2022-08-21T05:02:00.000Z,8.39
2022-08-21T05:04:00.000Z,8.39
2022-08-21T05:06:00.000Z,8.39
2022-08-21T05:08:00.000Z,8.39
2022-08-21T05:10:00.000Z,8.39
2022-08-21T05:12:00.000Z,8.5
2022-08-21T05:14:00.000Z,8.5
2022-08-21T05:16:00.000Z,8.56
2022-08-21T05:18:00.000Z,8.56
2022-08-21T05:20:00.000Z,8.67
2022-08-21T05:22:00.000Z,8.67
2022-08-21T05:24:00.000Z,8.78
2022-08-21T05:26:00.000Z,8.89
2022-08-21T05:28:00.000Z,9.0
2022-08-21T05:30:00.000Z,9.39
2022-08-21T05:32:00.000Z,9.56
2022-08-21T05:34:00.000Z,9.78
2022-08-21T05:36:00.000Z,10.0
2022-08-21T05:38:00.000Z,10.17
2022-08-21T05:40:00.000Z,10.17
2022-08-21T05:42:00.000Z,10.28
2022-08-21T05:44:00.000Z,10.39
2022-08-21T05:46:00.000Z,10.56
2022-08-21T05:48:00.000Z,10.89
2022-08-21T05:50:00.000Z,11.17
2022-08-21T05:52:00.000Z,11.5
2022-08-21T05:54:00.000Z,11.56
2022-08-21T05:56:00.000Z,11.5
2022-08-21T05:58:00.000Z,11.5
2022-08-21T06:00:00.000Z,11.5
2022-08-21T06:02:00.000Z,11.5
2022-08-21T06:04:00.000Z,11.5
2022-08-21T06:06:00.000Z,11.5
2022-08-21T06:08:00.000Z,11.56
2022-08-21T06:10:00.000Z,11.67
2022-08-21T06:12:00.000Z,11.78
2022-08-21T06:14:00.000Z,12.0
2022-08-21T06:16:00.000Z,12.06
2022-08-21T06:18:00.000Z,12.28
2022-08-21T06:20:00.000Z,12.5
2022-08-21T06:22:00.000Z,12.56
2022-08-21T06:24:00.000Z,12.78
2022-08-21T06:26:00.000Z,12.89
2022-08-21T06:28:00.000Z,13.0
2022-08-21T06:30:00.000Z,13.06
2022-08-21T06:32:00.000Z,13.17
2022-08-21T06:34:00.000Z,13.28
2022-08-21T06:36:00.000Z,13.5
2022-08-21T06:38:00.000Z,13.56
2022-08-21T06:40:00.000Z,13.78
2022-08-21T06:42:00.000Z,13.89
2022-08-21T06:44:00.000Z,14.06
2022-08-21T06:46:00.000Z,14.17
2022-08-21T06:48:00.000Z,14.28
2022-08-21T06:50:00.000Z,14.39
2022-08-21T06:52:00.000Z,14.5
2022-08-21T06:54:00.000Z,14.56
2022-08-21T06:56:00.000Z,14.56
2022-08-21T06:58:00.000Z,14.67
2022-08-21T07:00:00.000Z,14.78
2022-08-21T07:02:00.000Z,14.78
2022-08-21T07:04:00.000Z,15.0
2022-08-21T07:06:00.000Z,15.17
2022-08-21T07:08:00.000Z,15.5
2022-08-21T07:10:00.000Z,15.78
2022-08-21T07:12:00.000Z,16.06
2022-08-21T07:14:00.000Z,16.56
2022-08-21T07:16:00.000Z,17.0
2022-08-21T07:18:00.000Z,17.39
2022-08-21T07:20:00.000Z,17.67
2022-08-21T07:22:00.000Z,18.0
2022-08-21T07:24:00.000Z,18.17
2022-08-21T07:26:00.000Z,18.39
2022-08-21T07:28:00.000Z,18.5
2022-08-21T07:30:00.000Z,18.67
2022-08-21T07:32:00.000Z,18.89
2022-08-21T07:34:00.000Z,19.0
2022-08-21T07:36:00.000Z,19.06
2022-08-21T07:38:00.000Z,19.0
2022-08-21T07:40:00.000Z,18.78
2022-08-21T07:42:00.000Z,18.89
2022-08-21T07:44:00.000Z,19.28
2022-08-21T07:46:00.000Z,19.67
2022-08-21T07:48:00.000Z,20.17
2022-08-21T07:50:00.000Z,20.78
2022-08-21T07:52:00.000Z,21.17
2022-08-21T07:54:00.000Z,21.39
2022-08-21T07:56:00.000Z,21.56
2022-08-21T07:58:00.000Z,21.39
2022-08-21T08:00:00.000Z,21.56
2022-08-21T08:02:00.000Z,21.78
2022-08-21T08:04:00.000Z,22.06
2022-08-21T08:06:00.000Z,22.39
2022-08-21T08:08:00.000Z,22.78
2022-08-21T08:10:00.000Z,23.06
2022-08-21T08:12:00.000Z,23.28
2022-08-21T08:14:00.000Z,22.78
2022-08-21T08:16:00.000Z,23.0
2022-08-21T08:18:00.000Z,23.17
2022-08-21T08:20:00.000Z,23.39
2022-08-21T08:22:00.000Z,23.39
2022-08-21T08:24:00.000Z,23.39
2022-08-21T08:26:00.000Z,23.5
2022-08-21T08:28:00.000Z,23.56
2022-08-21T08:30:00.000Z,23.39
2022-08-21T08:32:00.000Z,23.5
2022-08-21T08:34:00.000Z,23.56
2022-08-21T08:36:00.000Z,23.56
2022-08-21T08:38:00.000Z,23.0
2022-08-21T08:40:00.000Z,22.78
2022-08-21T08:42:00.000Z,22.39
2022-08-21T08:44:00.000Z,22.39
2022-08-21T08:46:00.000Z,22.56
2022-08-21T08:48:00.000Z,22.78
2022-08-21T08:50:00.000Z,22.78
2022-08-21T08:52:00.000Z,22.89
2022-08-21T08:54:00.000Z,23.0
2022-08-21T08:56:00.000Z,23.0
2022-08-21T08:58:00.000Z,22.56
2022-08-21T09:00:00.000Z,22.67
2022-08-21T09:02:00.000Z,22.78
2022-08-21T09:04:00.000Z,22.56
2022-08-21T09:06:00.000Z,22.67
2022-08-21T09:08:00.000Z,22.89
2022-08-21T09:10:00.000Z,23.17
2022-08-21T09:12:00.000Z,23.39
2022-08-21T09:14:00.000Z,23.67
2022-08-21T09:16:00.000Z,23.78
2022-08-21T09:18:00.000Z,24.0
2022-08-21T09:20:00.000Z,23.06
2022-08-21T09:22:00.000Z,23.17
2022-08-21T09:24:00.000Z,23.28
2022-08-21T09:26:00.000Z,23.39
2022-08-21T09:28:00.000Z,23.5
2022-08-21T09:30:00.000Z,23.5
2022-08-21T09:32:00.000Z,23.0
2022-08-21T09:34:00.000Z,23.06
2022-08-21T09:36:00.000Z,23.28
2022-08-21T09:38:00.000Z,23.56
2022-08-21T09:40:00.000Z,23.89
2022-08-21T09:42:00.000Z,23.78
2022-08-21T09:44:00.000Z,23.89
2022-08-21T09:46:00.000Z,24.06
2022-08-21T09:48:00.000Z,24.17
2022-08-21T09:50:00.000Z,23.48
2022-08-21T09:52:00.000Z,23.89
2022-08-21T09:54:00.000Z,23.89
2022-08-21T09:56:00.000Z,23.89
2022-08-21T09:58:00.000Z,24.0
2022-08-21T10:00:00.000Z,24.28
2022-08-21T10:02:00.000Z,24.56
2022-08-21T10:04:00.000Z,24.0
2022-08-21T10:06:00.000Z,24.0
2022-08-21T10:08:00.000Z,24.06
2022-08-21T10:10:00.000Z,24.17
2022-08-21T10:12:00.000Z,23.5
2022-08-21T10:14:00.000Z,23.28
2022-08-21T10:16:00.000Z,23.39
2022-08-21T10:18:00.000Z,23.56
2022-08-21T10:20:00.000Z,24.0
2022-08-21T10:22:00.000Z,24.17
2022-08-21T10:24:00.000Z,24.56
2022-08-21T10:26:00.000Z,24.78
2022-08-21T10:28:00.000Z,25.06
2022-08-21T10:30:00.000Z,25.17
2022-08-21T10:32:00.000Z,25.06
2022-08-21T10:34:00.000Z,25.06
2022-08-21T10:36:00.000Z,25.17
2022-08-21T10:38:00.000Z,25.39
2022-08-21T10:40:00.000Z,25.56
2022-08-21T10:42:00.000Z,25.17
2022-08-21T10:44:00.000Z,25.06
2022-08-21T10:46:00.000Z,24.5
2022-08-21T10:48:00.000Z,24.5
2022-08-21T10:50:00.000Z,24.56
2022-08-21T10:52:00.000Z,24.67
2022-08-21T10:54:00.000Z,24.89
2022-08-21T10:56:00.000Z,25.06
2022-08-21T10:58:00.000Z,25.17
2022-08-21T11:00:00.000Z,24.89
2022-08-21T11:02:00.000Z,25.0
2022-08-21T11:04:00.000Z,25.06
2022-08-21T11:06:00.000Z,25.17
2022-08-21T11:08:00.000Z,25.17
2022-08-21T11:10:00.000Z,25.28
2022-08-21T11:12:00.000Z,25.39
2022-08-21T11:14:00.000Z,25.56
2022-08-21T11:16:00.000Z,25.78
2022-08-21T11:18:00.000Z,25.78
2022-08-21T11:20:00.000Z,25.78
2022-08-21T11:22:00.000Z,25.56
2022-08-21T11:24:00.000Z,25.78
2022-08-21T11:26:00.000Z,25.39
2022-08-21T11:28:00.000Z,25.06
2022-08-21T11:30:00.000Z,25.06
2022-08-21T11:32:00.000Z,25.06
2022-08-21T11:34:00.000Z,25.17
2022-08-21T11:36:00.000Z,25.17
2022-08-21T11:38:00.000Z,25.5
2022-08-21T11:40:00.000Z,25.67
2022-08-21T11:42:00.000Z,25.89
2022-08-21T11:44:00.000Z,26.17
2022-08-21T11:46:00.000Z,25.93
2022-08-21T11:48:00.000Z,24.97
2022-08-21T11:50:00.000Z,24.78
2022-08-21T11:52:00.000Z,24.67
2022-08-21T11:54:00.000Z,24.78
2022-08-21T11:56:00.000Z,25.06
2022-08-21T11:58:00.000Z,25.23
2022-08-21T12:00:00.000Z,25.06
2022-08-21T12:02:00.000Z,25.17
2022-08-21T12:04:00.000Z,24.83
2022-08-21T12:06:00.000Z,25.5
2022-08-21T12:08:00.000Z,25.67
2022-08-21T12:10:00.000Z,25.56
2022-08-21T12:12:00.000Z,25.56
2022-08-21T12:14:00.000Z,25.56
2022-08-21T12:16:00.000Z,25.17
2022-08-21T12:18:00.000Z,24.89
2022-08-21T12:20:00.000Z,24.89
2022-08-21T12:22:00.000Z,24.28
2022-08-21T12:24:00.000Z,24.39
2022-08-21T12:26:00.000Z,24.5
2022-08-21T12:28:00.000Z,24.67
2022-08-21T12:30:00.000Z,24.89
2022-08-21T12:32:00.000Z,25.28
2022-08-21T12:34:00.000Z,25.5
2022-08-21T12:36:00.000Z,25.5
2022-08-21T12:38:00.000Z,25.06
2022-08-21T12:40:00.000Z,25.06
2022-08-21T12:42:00.000Z,25.0
2022-08-21T12:44:00.000Z,25.06
2022-08-21T12:46:00.000Z,25.06
2022-08-21T12:48:00.000Z,25.0
2022-08-21T12:50:00.000Z,25.06
2022-08-21T12:52:00.000Z,25.28
2022-08-21T12:54:00.000Z,24.93
2022-08-21T12:56:00.000Z,24.78
2022-08-21T12:58:00.000Z,24.78
2022-08-21T13:00:00.000Z,24.47
2022-08-21T13:02:00.000Z,24.39
2022-08-21T13:04:00.000Z,24.42
2022-08-21T13:06:00.000Z,24.49
2022-08-21T13:08:00.000Z,24.89
2022-08-21T13:10:00.000Z,25.17
2022-08-21T13:12:00.000Z,25.5
2022-08-21T13:14:00.000Z,25.67
2022-08-21T13:16:00.000Z,25.45
2022-08-21T13:18:00.000Z,25.56
2022-08-21T13:20:00.000Z,25.67
2022-08-21T13:22:00.000Z,25.89
2022-08-21T13:24:00.000Z,25.78
2022-08-21T13:26:00.000Z,25.67
2022-08-21T13:28:00.000Z,25.78
2022-08-21T13:30:00.000Z,26.0
2022-08-21T13:32:00.000Z,25.79
2022-08-21T13:34:00.000Z,25.49
2022-08-21T13:36:00.000Z,26.0
2022-08-21T13:38:00.000Z,26.17
2022-08-21T13:40:00.000Z,26.28
2022-08-21T13:42:00.000Z,25.89
2022-08-21T13:44:00.000Z,25.86
2022-08-21T13:46:00.000Z,25.56
2022-08-21T13:48:00.000Z,25.78
2022-08-21T13:50:00.000Z,25.78
2022-08-21T13:52:00.000Z,25.78
2022-08-21T13:54:00.000Z,25.17
2022-08-21T13:56:00.000Z,24.89
2022-08-21T13:58:00.000Z,24.64
2022-08-21T14:00:00.000Z,24.67
2022-08-21T14:02:00.000Z,24.67
2022-08-21T14:04:00.000Z,24.78
2022-08-21T14:06:00.000Z,25.0
2022-08-21T14:08:00.000Z,25.17
2022-08-21T14:10:00.000Z,25.39
2022-08-21T14:12:00.000Z,25.39
2022-08-21T14:14:00.000Z,25.39
2022-08-21T14:16:00.000Z,25.39
2022-08-21T14:18:00.000Z,25.39
2022-08-21T14:20:00.000Z,25.28
2022-08-21T14:22:00.000Z,25.17
2022-08-21T14:24:00.000Z,24.89
2022-08-21T14:26:00.000Z,25.0
2022-08-21T14:28:00.000Z,25.17
2022-08-21T14:30:00.000Z,24.97
2022-08-21T14:32:00.000Z,25.56
2022-08-21T14:34:00.000Z,25.56
2022-08-21T14:36:00.000Z,25.5
2022-08-21T14:38:00.000Z,25.5
2022-08-21T14:40:00.000Z,25.5
2022-08-21T14:42:00.000Z,25.56
2022-08-21T14:44:00.000Z,25.67
2022-08-21T14:46:00.000Z,25.5
2022-08-21T14:48:00.000Z,25.5
2022-08-21T14:50:00.000Z,25.67
2022-08-21T14:52:00.000Z,25.89
2022-08-21T14:54:00.000Z,26.06
2022-08-21T14:56:00.000Z,25.89
2022-08-21T14:58:00.000Z,25.67
2022-08-21T15:00:00.000Z,25.5
2022-08-21T15:02:00.000Z,25.5
2022-08-21T15:04:00.000Z,25.56
2022-08-21T15:06:00.000Z,25.67
2022-08-21T15:08:00.000Z,25.67
2022-08-21T15:10:00.000Z,25.06
2022-08-21T15:12:00.000Z,25.0
2022-08-21T15:14:00.000Z,25.0
2022-08-21T15:16:00.000Z,24.89
2022-08-21T15:18:00.000Z,24.89
2022-08-21T15:20:00.000Z,24.89
2022-08-21T15:22:00.000Z,24.89
2022-08-21T15:24:00.000Z,24.81
2022-08-21T15:26:00.000Z,24.67
2022-08-21T15:28:00.000Z,24.78
2022-08-21T15:30:00.000Z,24.89
2022-08-21T15:32:00.000Z,25.0
2022-08-21T15:34:00.000Z,25.06
2022-08-21T15:36:00.000Z,24.89
2022-08-21T15:38:00.000Z,24.89
2022-08-21T15:40:00.000Z,25.0
2022-08-21T15:42:00.000Z,25.06
2022-08-21T15:44:00.000Z,25.17
2022-08-21T15:46:00.000Z,25.5
2022-08-21T15:48:00.000Z,25.06
2022-08-21T15:50:00.000Z,25.06
2022-08-21T15:52:00.000Z,25.17
2022-08-21T15:54:00.000Z,25.5
2022-08-21T15:56:00.000Z,25.67
2022-08-21T15:58:00.000Z,25.5
2022-08-21T16:00:00.000Z,25.5
2022-08-21T16:02:00.000Z,25.56
2022-08-21T16:04:00.000Z,25.39
2022-08-21T16:06:00.000Z,25.0
2022-08-21T16:08:00.000Z,24.78
2022-08-21T16:10:00.000Z,24.67
2022-08-21T16:12:00.000Z,24.56
2022-08-21T16:14:00.000Z,24.56
2022-08-21T16:16:00.000Z,24.56
2022-08-21T16:18:00.000Z,24.5
2022-08-21T16:20:00.000Z,24.5
2022-08-21T16:22:00.000Z,24.32
2022-08-21T16:24:00.000Z,24.5
2022-08-21T16:26:00.000Z,24.56
2022-08-21T16:28:00.000Z,24.78
2022-08-21T16:30:00.000Z,25.0
2022-08-21T16:32:00.000Z,25.28
2022-08-21T16:34:00.000Z,25.56
2022-08-21T16:36:00.000Z,25.89
2022-08-21T16:38:00.000Z,26.06
2022-08-21T16:40:00.000Z,25.56
2022-08-21T16:42:00.000Z,25.56
2022-08-21T16:44:00.000Z,25.28
2022-08-21T16:46:00.000Z,25.06
2022-08-21T16:48:00.000Z,24.89
2022-08-21T16:50:00.000Z,24.89
2022-08-21T16:52:00.000Z,25.0
2022-08-21T16:54:00.000Z,25.06
2022-08-21T16:56:00.000Z,25.06
2022-08-21T16:58:00.000Z,25.28
2022-08-21T17:00:00.000Z,25.39
2022-08-21T17:02:00.000Z,25.17
2022-08-21T17:04:00.000Z,25.17
2022-08-21T17:06:00.000Z,25.17
2022-08-21T17:08:00.000Z,25.28
2022-08-21T17:10:00.000Z,25.39
2022-08-21T17:12:00.000Z,25.06
2022-08-21T17:14:00.000Z,24.78
2022-08-21T17:16:00.000Z,24.67
2022-08-21T17:18:00.000Z,24.67
2022-08-21T17:20:00.000Z,24.56
2022-08-21T17:22:00.000Z,24.17
2022-08-21T17:24:00.000Z,24.06
2022-08-21T17:26:00.000Z,24.06
2022-08-21T17:28:00.000Z,24.17
2022-08-21T17:30:00.000Z,24.28
2022-08-21T17:32:00.000Z,24.06
2022-08-21T17:34:00.000Z,23.78
2022-08-21T17:36:00.000Z,23.67
2022-08-21T17:38:00.000Z,23.56
2022-08-21T17:40:00.000Z,23.39
2022-08-21T17:42:00.000Z,23.17
2022-08-21T17:44:00.000Z,23.06
2022-08-21T17:46:00.000Z,23.06
2022-08-21T17:48:00.000Z,23.0
2022-08-21T17:50:00.000Z,22.67
2022-08-21T17:52:00.000Z,22.5
2022-08-21T17:54:00.000Z,22.39
2022-08-21T17:56:00.000Z,21.89
2022-08-21T17:58:00.000Z,21.67
2022-08-21T18:00:00.000Z,21.5
2022-08-21T18:02:00.000Z,21.39
2022-08-21T18:04:00.000Z,21.17
2022-08-21T18:06:00.000Z,21.0
2022-08-21T18:08:00.000Z,20.89
2022-08-21T18:10:00.000Z,20.78
2022-08-21T18:12:00.000Z,20.56
2022-08-21T18:14:00.000Z,20.39
2022-08-21T18:16:00.000Z,20.17
2022-08-21T18:18:00.000Z,20.06
2022-08-21T18:20:00.000Z,19.89
2022-08-21T18:22:00.000Z,19.78
2022-08-21T18:24:00.000Z,19.56
2022-08-21T18:26:00.000Z,19.5
2022-08-21T18:28:00.000Z,19.28
2022-08-21T18:30:00.000Z,19.17
2022-08-21T18:32:00.000Z,19.17
2022-08-21T18:34:00.000Z,19.0
2022-08-21T18:36:00.000Z,18.89
2022-08-21T18:38:00.000Z,18.67
2022-08-21T18:40:00.000Z,18.5
2022-08-21T18:42:00.000Z,18.39
2022-08-21T18:44:00.000Z,18.28
2022-08-21T18:46:00.000Z,18.17
2022-08-21T18:48:00.000Z,18.0
2022-08-21T18:50:00.000Z,18.0
2022-08-21T18:52:00.000Z,17.89
2022-08-21T18:54:00.000Z,17.67
2022-08-21T18:56:00.000Z,17.56
2022-08-21T18:58:00.000Z,17.5
2022-08-21T19:00:00.000Z,17.39
2022-08-21T19:02:00.000Z,17.28
2022-08-21T19:04:00.000Z,17.17
2022-08-21T19:06:00.000Z,17.06
2022-08-21T19:08:00.000Z,17.06
2022-08-21T19:10:00.000Z,17.0
2022-08-21T19:12:00.000Z,17.0
2022-08-21T19:14:00.000Z,16.78
2022-08-21T19:16:00.000Z,16.67
2022-08-21T19:18:00.000Z,16.56
2022-08-21T19:20:00.000Z,16.56
2022-08-21T19:22:00.000Z,16.39
2022-08-21T19:24:00.000Z,16.28
2022-08-21T19:26:00.000Z,16.17
2022-08-21T19:28:00.000Z,16.06
2022-08-21T19:30:00.000Z,16.0
2022-08-21T19:32:00.000Z,15.89
2022-08-21T19:34:00.000Z,15.89
2022-08-21T19:36:00.000Z,15.78
2022-08-21T19:38:00.000Z,15.78
2022-08-21T19:40:00.000Z,15.67
2022-08-21T19:42:00.000Z,15.56
2022-08-21T19:44:00.000Z,15.5
2022-08-21T19:46:00.000Z,15.28
2022-08-21T19:48:00.000Z,15.17
2022-08-21T19:50:00.000Z,15.06
2022-08-21T19:52:00.000Z,15.0
2022-08-21T19:54:00.000Z,14.89
2022-08-21T19:56:00.000Z,14.89
2022-08-21T19:58:00.000Z,14.89
2022-08-21T20:00:00.000Z,14.78
2022-08-21T20:02:00.000Z,14.78
2022-08-21T20:04:00.000Z,14.67
2022-08-21T20:06:00.000Z,14.67
2022-08-21T20:08:00.000Z,14.67
2022-08-21T20:10:00.000Z,14.78
2022-08-21T20:12:00.000Z,14.78
2022-08-21T20:14:00.000Z,14.56
2022-08-21T20:16:00.000Z,14.56
2022-08-21T20:18:00.000Z,14.56
2022-08-21T20:20:00.000Z,14.56
2022-08-21T20:22:00.000Z,14.56
2022-08-21T20:24:00.000Z,14.5
2022-08-21T20:26:00.000Z,14.5
2022-08-21T20:28:00.000Z,14.39
2022-08-21T20:30:00.000Z,14.39
2022-08-21T20:32:00.000Z,14.39
2022-08-21T20:34:00.000Z,14.39
2022-08-21T20:36:00.000Z,14.17
2022-08-21T20:38:00.000Z,14.17
2022-08-21T20:40:00.000Z,14.17
2022-08-21T20:42:00.000Z,14.17
2022-08-21T20:44:00.000Z,14.17
2022-08-21T20:46:00.000Z,14.17
2022-08-21T20:48:00.000Z,14.06
2022-08-21T20:50:00.000Z,14.06
2022-08-21T20:52:00.000Z,14.06
2022-08-21T20:54:00.000Z,14.06
2022-08-21T20:56:00.000Z,14.0
2022-08-21T20:58:00.000Z,13.89
2022-08-21T21:00:00.000Z,13.78
2022-08-21T21:02:00.000Z,13.67
2022-08-21T21:04:00.000Z,13.67
2022-08-21T21:06:00.000Z,13.56
2022-08-21T21:08:00.000Z,13.56
2022-08-21T21:10:00.000Z,13.5
2022-08-21T21:12:00.000Z,13.5
2022-08-21T21:14:00.000Z,13.39
2022-08-21T21:16:00.000Z,13.39
2022-08-21T21:18:00.000Z,13.17
2022-08-21T21:20:00.000Z,13.17
2022-08-21T21:22:00.000Z,13.06
2022-08-21T21:24:00.000Z,13.06
2022-08-21T21:26:00.000Z,13.0
2022-08-21T21:28:00.000Z,13.0
2022-08-21T21:30:00.000Z,12.89
2022-08-21T21:32:00.000Z,12.78
2022-08-21T21:34:00.000Z,12.78
2022-08-21T21:36:00.000Z,12.78
2022-08-21T21:38:00.000Z,12.78
2022-08-21T21:40:00.000Z,12.89
2022-08-21T21:42:00.000Z,12.78
2022-08-21T21:44:00.000Z,12.78
2022-08-21T21:46:00.000Z,12.78
2022-08-21T21:48:00.000Z,12.67
2022-08-21T21:50:00.000Z,12.67
2022-08-21T21:52:00.000Z,12.56
2022-08-21T21:54:00.000Z,12.5
2022-08-21T21:56:00.000Z,12.5
2022-08-21T21:58:00.000Z,12.5
2022-08-21T22:00:00.000Z,12.5
2022-08-21T22:02:00.000Z,12.5
2022-08-21T22:04:00.000Z,12.5
2022-08-21T22:06:00.000Z,12.5
2022-08-21T22:08:00.000Z,12.5
2022-08-21T22:10:00.000Z,12.5
2022-08-21T22:12:00.000Z,12.5
2022-08-21T22:14:00.000Z,12.5
2022-08-21T22:16:00.000Z,12.56
2022-08-21T22:18:00.000Z,12.56
2022-08-21T22:20:00.000Z,12.67
2022-08-21T22:22:00.000Z,12.67
2022-08-21T22:24:00.000Z,12.56
2022-08-21T22:26:00.000Z,12.5
2022-08-21T22:28:00.000Z,12.28
2022-08-21T22:30:00.000Z,12.17
2022-08-21T22:32:00.000Z,12.06
2022-08-21T22:34:00.000Z,12.06
2022-08-21T22:36:00.000Z,12.06
2022-08-21T22:38:00.000Z,12.0
2022-08-21T22:40:00.000Z,12.0
2022-08-21T22:42:00.000Z,12.0
2022-08-21T22:44:00.000Z,12.0
2022-08-21T22:46:00.000Z,12.0
2022-08-21T22:48:00.000Z,11.89
2022-08-21T22:50:00.000Z,11.78
2022-08-21T22:52:00.000Z,11.78
2022-08-21T22:54:00.000Z,11.78
2022-08-21T22:56:00.000Z,11.78
2022-08-21T22:58:00.000Z,11.78
2022-08-21T23:00:00.000Z,11.67
2022-08-21T23:02:00.000Z,11.67
2022-08-21T23:04:00.000Z,11.67
2022-08-21T23:06:00.000Z,11.67
2022-08-21T23:08:00.000Z,11.67
2022-08-21T23:10:00.000Z,11.67
2022-08-21T23:12:00.000Z,11.67
2022-08-21T23:14:00.000Z,11.67
2022-08-21T23:16:00.000Z,11.67
2022-08-21T23:18:00.000Z,11.67
2022-08-21T23:20:00.000Z,11.78
2022-08-21T23:22:00.000Z,11.67
2022-08-21T23:24:00.000Z,11.56
2022-08-21T23:26:00.000Z,11.56
2022-08-21T23:28:00.000Z,11.56
2022-08-21T23:30:00.000Z,11.56
2022-08-21T23:32:00.000Z,11.56
2022-08-21T23:34:00.000Z,11.5
2022-08-21T23:36:00.000Z,11.5
2022-08-21T23:38:00.000Z,11.5
2022-08-21T23:40:00.000Z,11.5
2022-08-21T23:42:00.000Z,11.56
2022-08-21T23:44:00.000Z,11.5
2022-08-21T23:46:00.000Z,11.39
2022-08-21T23:48:00.000Z,11.28
2022-08-21T23:50:00.000Z,11.17
2022-08-21T23:52:00.000Z,11.17
2022-08-21T23:54:00.000Z,11.17
2022-08-21T23:56:00.000Z,11.17
2022-08-21T23:58:00.000Z,11.06
